createdAt,value
2023-05-20T00:00:18.286Z,100860.91
2023-05-20T00:02:46.207Z,100848.28
2023-05-20T00:05:13.792Z,100852.84
2023-05-20T00:07:41.235Z,100853.81
2023-05-20T00:10:09.024Z,100855.97
2023-05-20T00:12:36.351Z,100850.66
2023-05-20T00:15:04.021Z,100842.91
2023-05-20T00:17:32.500Z,100834.84
2023-05-20T00:20:00.203Z,100843.44
2023-05-20T00:22:27.661Z,100843.84
2023-05-20T00:24:54.994Z,100841.38
2023-05-20T00:27:22.314Z,100836.16
2023-05-20T00:29:49.714Z,100831.66
2023-05-20T00:32:17.400Z,100830.84
2023-05-20T00:34:44.851Z,100824.44
2023-05-20T00:37:12.263Z,100818.13
2023-05-20T00:39:39.627Z,100817.00
2023-05-20T00:42:07.122Z,100811.91
2023-05-20T00:44:34.456Z,100813.41
2023-05-20T00:47:01.800Z,100805.34
2023-05-20T00:49:29.154Z,100808.19
2023-05-20T00:51:56.632Z,100804.22
2023-05-20T00:54:23.985Z,100810.53
2023-05-20T00:56:51.599Z,100806.63
2023-05-20T00:59:19.027Z,100805.34
2023-05-20T01:01:46.663Z,100816.19
2023-05-20T01:04:14.092Z,100809.56
2023-05-20T01:06:41.627Z,100814.16
2023-05-20T01:09:09.125Z,100805.03
2023-05-20T01:11:48.887Z,100810.09
2023-05-20T01:14:19.051Z,100808.84
2023-05-20T01:16:49.886Z,100803.38
2023-05-20T01:19:38.338Z,100798.22
2023-05-20T01:22:07.939Z,100794.59
2023-05-20T01:24:35.307Z,100786.59
2023-05-20T01:27:02.864Z,100780.44
2023-05-20T01:29:32.788Z,100783.84
2023-05-20T01:32:02.011Z,100772.13
2023-05-20T01:34:30.163Z,100784.69
2023-05-20T01:36:57.718Z,100777.19
2023-05-20T01:39:26.334Z,100783.28
2023-05-20T01:41:55.679Z,100783.38
2023-05-20T01:44:23.481Z,100775.72
2023-05-20T01:46:51.135Z,100783.38
2023-05-20T01:49:18.529Z,100774.34
2023-05-20T01:51:45.954Z,100770.78
2023-05-20T01:54:13.363Z,100769.97
2023-05-20T01:56:41.675Z,100763.34
2023-05-20T01:59:09.606Z,100751.44
2023-05-20T02:01:37.075Z,100751.25
2023-05-20T02:04:04.578Z,100745.16
2023-05-20T02:06:31.918Z,100753.31
2023-05-20T02:08:59.273Z,100748.94
2023-05-20T02:11:26.727Z,100738.25
2023-05-20T02:13:56.217Z,100744.28
2023-05-20T02:16:23.914Z,100740.56
2023-05-20T02:18:53.178Z,100734.50
2023-05-20T02:21:21.597Z,100740.41
2023-05-20T02:23:49.001Z,100733.47
2023-05-20T02:26:16.446Z,100729.91
2023-05-20T02:28:46.791Z,100730.78
2023-05-20T02:31:14.496Z,100735.91
2023-05-20T02:33:41.859Z,100731.97
2023-05-20T02:36:09.396Z,100729.34
2023-05-20T02:38:36.730Z,100724.06
2023-05-20T02:41:04.719Z,100728.56
2023-05-20T02:43:33.257Z,100731.66
2023-05-20T02:46:04.885Z,100732.66
2023-05-20T02:48:33.583Z,100732.75
2023-05-20T02:51:00.927Z,100730.22
2023-05-20T02:53:28.272Z,100716.69
2023-05-20T02:55:55.650Z,100719.00
2023-05-20T02:58:26.371Z,100714.91
2023-05-20T03:00:54.037Z,100714.91
2023-05-20T03:03:21.769Z,100710.28
2023-05-20T03:05:50.195Z,100708.75
2023-05-20T03:08:22.771Z,100705.38
2023-05-20T03:10:51.721Z,100697.63
2023-05-20T03:13:19.083Z,100703.41
2023-05-20T03:15:46.486Z,100708.16
2023-05-20T03:18:14.016Z,100701.75
2023-05-20T03:20:44.012Z,100702.16
2023-05-20T03:23:12.444Z,100693.44
2023-05-20T03:25:40.640Z,100699.22
2023-05-20T03:28:08.842Z,100697.00
2023-05-20T03:30:37.962Z,100693.78
2023-05-20T03:33:06.045Z,100691.56
2023-05-20T03:35:33.695Z,100695.88
2023-05-20T03:38:01.851Z,100691.84
2023-05-20T03:40:29.843Z,100685.91
2023-05-20T03:42:57.308Z,100692.13
2023-05-20T03:45:25.751Z,100692.13
2023-05-20T03:47:59.550Z,100691.97
2023-05-20T03:50:26.960Z,100694.75
2023-05-20T03:52:54.320Z,100698.94
2023-05-20T03:55:24.987Z,100695.97
2023-05-20T03:57:52.998Z,100696.06
2023-05-20T04:00:20.467Z,100703.53
2023-05-20T04:02:49.097Z,100693.94
2023-05-20T04:05:19.446Z,100688.69
2023-05-20T04:07:47.875Z,100697.06
2023-05-20T04:10:20.559Z,100688.00
2023-05-20T04:12:47.982Z,100686.31
2023-05-20T04:15:15.771Z,100695.03
2023-05-20T04:17:53.155Z,100682.78
2023-05-20T04:20:20.613Z,100680.53
2023-05-20T04:22:49.100Z,100676.59
2023-05-20T04:25:17.304Z,100678.47
2023-05-20T04:27:44.934Z,100694.75
2023-05-20T04:30:12.701Z,100690.16
2023-05-20T04:32:42.208Z,100688.72
2023-05-20T04:35:12.246Z,100680.59
2023-05-20T04:37:42.506Z,100693.94
2023-05-20T04:40:12.554Z,100689.81
2023-05-20T04:42:40.167Z,100685.66
2023-05-20T04:45:08.904Z,100683.13
2023-05-20T04:47:39.212Z,100683.22
2023-05-20T04:50:10.850Z,100679.44
2023-05-20T04:52:39.677Z,100681.47
2023-05-20T04:55:10.450Z,100673.47
2023-05-20T04:57:42.218Z,100666.59
2023-05-20T05:00:12.632Z,100660.56
2023-05-20T05:02:41.098Z,100653.44
2023-05-20T05:05:08.899Z,100659.47
2023-05-20T05:07:36.414Z,100655.19
2023-05-20T05:10:04.516Z,100652.38
2023-05-20T05:12:34.118Z,100647.00
2023-05-20T05:15:01.494Z,100654.13
2023-05-20T05:17:31.637Z,100642.25
2023-05-20T05:19:59.128Z,100637.69
2023-05-20T05:22:28.894Z,100637.75
2023-05-20T05:24:56.502Z,100638.00
2023-05-20T05:27:24.066Z,100641.19
2023-05-20T05:29:51.455Z,100629.63
2023-05-20T05:32:19.716Z,100632.03
2023-05-20T05:34:47.351Z,100630.56
2023-05-20T05:37:15.028Z,100624.84
2023-05-20T05:39:42.926Z,100620.28
2023-05-20T05:42:10.233Z,100617.13
2023-05-20T05:44:38.232Z,100620.00
2023-05-20T05:47:07.676Z,100615.31
2023-05-20T05:49:35.420Z,100610.59
2023-05-20T05:52:03.828Z,100607.66
2023-05-20T05:54:31.289Z,100618.41
2023-05-20T05:56:58.832Z,100612.91
2023-05-20T05:59:28.441Z,100618.72
2023-05-20T06:01:56.507Z,100621.13
2023-05-20T06:04:23.982Z,100623.03
2023-05-20T06:06:53.828Z,100624.38
2023-05-20T06:09:21.436Z,100618.75
2023-05-20T06:11:48.869Z,100622.28
2023-05-20T06:14:16.254Z,100625.84
2023-05-20T06:16:43.978Z,100618.75
2023-05-20T06:19:12.997Z,100625.06
2023-05-20T06:21:40.476Z,100618.13
2023-05-20T06:24:11.818Z,100624.44
2023-05-20T06:26:39.229Z,100626.50
2023-05-20T06:29:06.700Z,100627.34
2023-05-20T06:31:34.034Z,100628.13
2023-05-20T06:34:01.475Z,100628.06
2023-05-20T06:36:29.526Z,100632.50
2023-05-20T06:38:57.710Z,100635.91
2023-05-20T06:41:26.541Z,100634.09
2023-05-20T06:43:54.348Z,100630.44
2023-05-20T06:46:40.064Z,100627.06
2023-05-20T06:49:12.045Z,100629.41
2023-05-20T06:51:39.462Z,100631.47
2023-05-20T06:54:07.427Z,100632.19
2023-05-20T06:56:34.778Z,100631.41
2023-05-20T06:59:02.104Z,100640.16
2023-05-20T07:01:30.528Z,100642.31
2023-05-20T07:03:58.198Z,100640.31
2023-05-20T07:06:25.742Z,100640.09
2023-05-20T07:08:53.969Z,100628.41
2023-05-20T07:11:21.760Z,100637.81
2023-05-20T07:13:49.075Z,100647.66
2023-05-20T07:16:16.445Z,100651.94
2023-05-20T07:18:49.325Z,100644.91
2023-05-20T07:21:16.840Z,100647.34
2023-05-20T07:24:22.542Z,100647.44
2023-05-20T07:26:50.037Z,100634.94
2023-05-20T07:29:17.453Z,100633.81
2023-05-20T07:31:45.156Z,100632.88
2023-05-20T07:34:12.571Z,100620.38
2023-05-20T07:36:41.811Z,100625.53
2023-05-20T07:39:13.471Z,100619.91
2023-05-20T07:41:42.758Z,100618.16
2023-05-20T07:44:11.396Z,100626.16
2023-05-20T07:46:42.008Z,100622.75
2023-05-20T07:49:11.368Z,100622.13
2023-05-20T07:51:40.066Z,100625.44
2023-05-20T07:54:07.416Z,100625.53
2023-05-20T07:56:34.841Z,100618.56
2023-05-20T07:59:03.477Z,100627.28
2023-05-20T08:01:35.440Z,100621.03
2023-05-20T08:04:04.341Z,100625.84
2023-05-20T08:06:32.697Z,100615.78
2023-05-20T08:09:00.070Z,100623.22
2023-05-20T08:11:33.897Z,100614.81
2023-05-20T08:14:02.483Z,100629.22
2023-05-20T08:16:36.345Z,100635.84
2023-05-20T08:19:03.975Z,100636.00
2023-05-20T08:21:31.521Z,100639.41
2023-05-20T08:23:59.111Z,100640.13
2023-05-20T08:26:26.936Z,100642.38
2023-05-20T08:28:55.551Z,100650.16
2023-05-20T08:31:23.712Z,100654.13
2023-05-20T08:33:51.493Z,100661.19
2023-05-20T08:36:19.557Z,100659.59
2023-05-20T08:38:47.720Z,100670.72
2023-05-20T08:41:15.875Z,100677.75
2023-05-20T08:43:46.776Z,100671.75
2023-05-20T08:46:17.540Z,100664.16
2023-05-20T08:48:45.921Z,100663.56
2023-05-20T08:51:15.728Z,100667.31
2023-05-20T08:53:43.159Z,100665.88
2023-05-20T08:56:11.715Z,100670.22
2023-05-20T08:58:39.184Z,100666.94
2023-05-20T09:01:07.884Z,100675.59
2023-05-20T09:03:35.288Z,100670.13
2023-05-20T09:06:09.408Z,100674.03
2023-05-20T09:08:37.251Z,100678.97
2023-05-20T09:11:04.657Z,100674.53
2023-05-20T09:13:35.097Z,100680.09
2023-05-20T09:16:02.815Z,100674.31
2023-05-20T09:18:30.539Z,100681.25
2023-05-20T09:20:58.220Z,100674.91
2023-05-20T09:23:26.017Z,100684.94
2023-05-20T09:25:53.519Z,100680.66
2023-05-20T09:28:25.177Z,100688.97
2023-05-20T09:31:00.253Z,100690.47
2023-05-20T09:33:32.207Z,100684.47
2023-05-20T09:36:08.751Z,100682.03
2023-05-20T09:38:40.581Z,100674.41
2023-05-20T09:41:13.753Z,100679.13
2023-05-20T09:43:42.058Z,100677.75
2023-05-20T09:46:10.396Z,100680.25
2023-05-20T09:48:38.579Z,100684.69
2023-05-20T09:51:07.821Z,100675.16
2023-05-20T09:53:36.281Z,100677.94
2023-05-20T09:56:05.388Z,100674.22
2023-05-20T09:58:35.841Z,100675.75
2023-05-20T10:01:03.731Z,100672.03
2023-05-20T10:03:33.396Z,100673.69
2023-05-20T10:06:10.002Z,100669.88
2023-05-20T10:08:57.315Z,100661.94
2023-05-20T10:11:38.764Z,100660.66
2023-05-20T10:14:12.410Z,100650.50
2023-05-20T10:16:50.663Z,100655.59
2023-05-20T10:19:26.140Z,100640.41
2023-05-20T10:21:59.073Z,100642.50
2023-05-20T10:24:35.879Z,100640.84
2023-05-20T10:27:08.116Z,100640.31
2023-05-20T10:32:34.810Z,100642.38
2023-05-20T10:35:05.523Z,100638.59
2023-05-20T10:37:44.212Z,100631.69
2023-05-20T10:40:14.205Z,100628.75
2023-05-20T10:42:43.111Z,100633.13
2023-05-20T10:45:11.541Z,100623.22
2023-05-20T10:47:54.247Z,100628.69
2023-05-20T10:50:36.503Z,100617.69
2023-05-20T10:53:18.549Z,100607.47
2023-05-20T10:55:55.069Z,100602.53
2023-05-20T10:58:24.569Z,100600.91
2023-05-20T11:00:55.014Z,100594.75
2023-05-20T11:03:23.549Z,100593.69
2023-05-20T11:05:52.120Z,100586.31
2023-05-20T11:08:27.774Z,100584.50
2023-05-20T11:10:57.972Z,100578.91
2023-05-20T11:13:27.166Z,100590.19
2023-05-20T11:15:55.705Z,100595.50
2023-05-20T11:18:24.190Z,100599.72
2023-05-20T11:20:53.666Z,100591.09
2023-05-20T11:23:23.500Z,100580.69
2023-05-20T11:25:53.279Z,100583.00
2023-05-20T11:28:21.656Z,100569.81
2023-05-20T11:30:49.654Z,100578.09
2023-05-20T11:33:18.698Z,100578.31
2023-05-20T11:35:50.868Z,100579.16
2023-05-20T11:38:19.557Z,100570.22
2023-05-20T11:40:51.871Z,100573.00
2023-05-20T11:43:20.670Z,100577.53
2023-05-20T11:45:54.763Z,100579.16
2023-05-20T11:48:23.694Z,100583.97
2023-05-20T11:50:54.249Z,100569.50
2023-05-20T11:53:23.270Z,100570.56
2023-05-20T11:55:57.578Z,100579.28
2023-05-20T11:58:34.131Z,100583.03
2023-05-20T12:01:14.072Z,100606.75
2023-05-20T12:03:49.897Z,100621.09
2023-05-20T12:06:18.014Z,100617.63
2023-05-20T12:08:48.939Z,100615.81
2023-05-20T12:11:16.514Z,100606.84
2023-05-20T12:13:44.198Z,100588.53
2023-05-20T12:16:11.641Z,100584.47
2023-05-20T12:18:42.720Z,100590.47
2023-05-20T12:21:10.616Z,100613.78
2023-05-20T12:23:37.960Z,100626.88
2023-05-20T12:26:05.765Z,100615.59
2023-05-20T12:28:33.312Z,100613.66
2023-05-20T12:31:01.310Z,100604.72
2023-05-20T12:33:31.508Z,100607.97
2023-05-20T12:35:59.196Z,100627.06
2023-05-20T12:38:26.566Z,100617.63
2023-05-20T12:40:53.928Z,100620.13
2023-05-20T12:43:21.229Z,100614.38
2023-05-20T12:45:48.779Z,100611.09
2023-05-20T12:48:16.760Z,100612.13
2023-05-20T12:50:44.362Z,100615.03
2023-05-20T12:53:11.887Z,100611.75
2023-05-20T12:55:39.574Z,100613.00
2023-05-20T12:58:08.941Z,100618.69
2023-05-20T13:00:37.952Z,100613.97
2023-05-20T13:03:05.502Z,100611.66
2023-05-20T13:05:33.082Z,100615.63
2023-05-20T13:08:00.582Z,100607.03
2023-05-20T13:10:27.991Z,100613.97
2023-05-20T13:12:56.570Z,100608.00
2023-05-20T13:15:24.239Z,100597.31
2023-05-20T13:17:51.623Z,100600.94
2023-05-20T13:20:20.012Z,100596.81
2023-05-20T13:22:47.974Z,100597.69
2023-05-20T13:25:15.415Z,100590.75
2023-05-20T13:27:42.858Z,100592.28
2023-05-20T13:30:10.907Z,100598.84
2023-05-20T13:32:38.598Z,100598.84
2023-05-20T13:35:06.495Z,100594.81
2023-05-20T13:37:33.967Z,100609.63
2023-05-20T13:40:01.633Z,100594.53
2023-05-20T13:42:29.323Z,100600.19
2023-05-20T13:44:56.679Z,100600.38
2023-05-20T13:47:24.176Z,100606.25
2023-05-20T13:49:54.589Z,100601.91
2023-05-20T13:52:21.996Z,100593.22
2023-05-20T13:54:49.489Z,100588.22
2023-05-20T13:57:17.314Z,100584.25
2023-05-20T13:59:44.774Z,100580.59
2023-05-20T14:02:12.377Z,100584.66
2023-05-20T14:04:41.081Z,100575.72
2023-05-20T14:07:09.958Z,100581.19
2023-05-20T14:09:37.974Z,100584.97
2023-05-20T14:12:06.572Z,100593.06
2023-05-20T14:14:34.021Z,100598.34
2023-05-20T14:17:01.471Z,100595.34
2023-05-20T14:19:30.020Z,100594.31
2023-05-20T14:22:01.093Z,100596.72
2023-05-20T14:24:29.104Z,100598.09
2023-05-20T14:26:56.659Z,100590.16
2023-05-20T14:29:23.980Z,100593.66
2023-05-20T14:31:51.292Z,100592.69
2023-05-20T14:34:18.629Z,100598.09
2023-05-20T14:36:46.094Z,100596.72
2023-05-20T14:39:13.489Z,100596.63
2023-05-20T14:41:40.858Z,100597.69
2023-05-20T14:44:08.216Z,100591.34
2023-05-20T14:46:35.761Z,100585.00
2023-05-20T14:49:03.351Z,100594.63
2023-05-20T14:51:31.496Z,100593.56
2023-05-20T14:53:58.869Z,100586.44
2023-05-20T14:56:26.864Z,100592.00
2023-05-20T14:58:54.244Z,100596.53
2023-05-20T15:01:21.586Z,100589.28
2023-05-20T15:03:48.983Z,100603.44
2023-05-20T15:06:16.577Z,100594.78
2023-05-20T15:08:43.923Z,100591.31
2023-05-20T15:11:11.413Z,100602.19
2023-05-20T15:13:40.369Z,100602.47
2023-05-20T15:16:08.080Z,100613.06
2023-05-20T15:18:35.414Z,100618.28
2023-05-20T15:21:02.927Z,100607.88
2023-05-20T15:23:30.315Z,100621.06
2023-05-20T15:26:00.823Z,100617.31
2023-05-20T15:28:28.606Z,100611.22
2023-05-20T15:30:56.609Z,100606.22
2023-05-20T15:33:24.669Z,100600.84
2023-05-20T15:35:52.451Z,100600.03
2023-05-20T15:38:19.851Z,100596.47
2023-05-20T15:40:50.235Z,100592.81
2023-05-20T15:43:18.333Z,100591.28
2023-05-20T15:45:53.363Z,100585.78
2023-05-20T15:48:22.163Z,100593.22
2023-05-20T15:50:49.876Z,100580.50
2023-05-20T15:53:17.489Z,100582.31
2023-05-20T15:55:45.277Z,100582.31
2023-05-20T15:58:12.728Z,100579.72
2023-05-20T16:00:40.745Z,100578.00
2023-05-20T16:03:08.599Z,100574.59
2023-05-20T16:05:36.861Z,100574.53
2023-05-20T16:08:05.923Z,100573.28
2023-05-20T16:10:37.189Z,100566.25
2023-05-20T16:13:04.991Z,100572.59
2023-05-20T16:15:36.260Z,100571.63
2023-05-20T16:18:04.377Z,100574.03
2023-05-20T16:20:32.136Z,100570.69
2023-05-20T16:23:00.089Z,100572.50
2023-05-20T16:25:27.459Z,100572.50
2023-05-20T16:27:54.810Z,100568.09
2023-05-20T16:30:22.499Z,100572.59
2023-05-20T16:32:50.198Z,100569.91
2023-05-20T16:35:17.887Z,100579.81
2023-05-20T16:37:45.803Z,100574.53
2023-05-20T16:40:13.658Z,100578.16
2023-05-20T16:42:42.268Z,100581.72
2023-05-20T16:45:10.259Z,100579.94
2023-05-20T16:47:37.842Z,100586.66
2023-05-20T16:50:05.955Z,100587.03
2023-05-20T16:52:34.240Z,100589.81
2023-05-20T16:55:03.961Z,100588.94
2023-05-20T16:57:32.641Z,100590.72
2023-05-20T17:00:00.218Z,100589.25
2023-05-20T17:02:27.790Z,100586.78
2023-05-20T17:04:55.473Z,100583.44
2023-05-20T17:07:23.022Z,100585.16
2023-05-20T17:09:50.558Z,100596.72
2023-05-20T17:12:18.070Z,100587.97
2023-05-20T17:14:45.492Z,100593.34
2023-05-20T17:17:15.078Z,100596.25
2023-05-20T17:19:42.653Z,100584.59
2023-05-20T17:22:10.486Z,100594.75
2023-05-20T17:24:38.027Z,100596.59
2023-05-20T17:27:06.381Z,100594.00
2023-05-20T17:29:34.098Z,100592.81
2023-05-20T17:32:01.582Z,100594.78
2023-05-20T17:34:29.864Z,100596.59
2023-05-20T17:36:57.811Z,100598.50
2023-05-20T17:39:25.226Z,100604.00
2023-05-20T17:41:52.632Z,100609.38
2023-05-20T17:44:20.103Z,100605.66
2023-05-20T17:46:48.637Z,100608.63
2023-05-20T17:49:16.839Z,100614.09
2023-05-20T17:51:44.389Z,100609.94
2023-05-20T17:54:11.736Z,100624.09
2023-05-20T17:56:39.117Z,100636.88
2023-05-20T17:59:06.862Z,100636.78
2023-05-20T18:01:36.169Z,100640.34
2023-05-20T18:04:05.878Z,100643.13
2023-05-20T18:06:36.456Z,100646.75
2023-05-20T18:09:06.011Z,100648.06
2023-05-20T18:11:34.463Z,100652.47
2023-05-20T18:14:02.783Z,100654.66
2023-05-20T18:16:30.814Z,100651.88
2023-05-20T18:18:58.598Z,100644.81
2023-05-20T18:21:26.655Z,100643.91
2023-05-20T18:23:54.575Z,100643.00
2023-05-20T18:26:22.675Z,100650.38
2023-05-20T18:28:50.229Z,100642.31
2023-05-20T18:31:17.683Z,100645.19
2023-05-20T18:33:45.078Z,100639.81
2023-05-20T18:36:12.550Z,100650.47
2023-05-20T18:38:41.546Z,100650.56
2023-05-20T18:41:09.575Z,100652.53
2023-05-20T18:43:36.967Z,100648.09
2023-05-20T18:46:04.426Z,100641.88
2023-05-20T18:48:31.945Z,100644.81
2023-05-20T18:50:59.334Z,100639.59
2023-05-20T18:53:26.758Z,100644.28
2023-05-20T18:55:54.275Z,100631.88
2023-05-20T18:58:22.085Z,100644.38
2023-05-20T19:00:49.451Z,100640.13
2023-05-20T19:03:17.062Z,100632.81
2023-05-20T19:05:44.514Z,100641.84
2023-05-20T19:08:11.978Z,100631.00
2023-05-20T19:10:39.462Z,100638.91
2023-05-20T19:13:06.855Z,100634.28
2023-05-20T19:15:34.441Z,100631.59
2023-05-20T19:18:02.110Z,100637.78
2023-05-20T19:20:29.442Z,100638.56
2023-05-20T19:22:56.829Z,100638.47
2023-05-20T19:25:24.141Z,100636.91
2023-05-20T19:27:51.640Z,100626.22
2023-05-20T19:30:19.237Z,100641.94
2023-05-20T19:32:46.685Z,100638.31
2023-05-20T19:35:14.664Z,100636.47
2023-05-20T19:37:42.253Z,100637.09
2023-05-20T19:40:10.323Z,100639.16
2023-05-20T19:42:37.904Z,100635.63
2023-05-20T19:45:06.200Z,100645.78
2023-05-20T19:47:34.032Z,100642.81
2023-05-20T19:50:02.525Z,100637.44
2023-05-20T19:52:32.024Z,100633.84
2023-05-20T19:54:59.679Z,100633.78
2023-05-20T19:57:30.704Z,100641.91
2023-05-20T19:59:58.581Z,100645.72
2023-05-20T20:02:29.524Z,100649.38
2023-05-20T20:04:56.858Z,100650.16
2023-05-20T20:07:24.300Z,100644.78
2023-05-20T20:09:55.225Z,100651.56
2023-05-20T20:12:24.063Z,100650.94
2023-05-20T20:14:52.234Z,100650.16
2023-05-20T20:17:22.579Z,100652.06
2023-05-20T20:19:53.359Z,100641.59
2023-05-20T20:22:21.396Z,100654.25
2023-05-20T20:24:52.559Z,100651.19
2023-05-20T20:27:20.744Z,100648.81
2023-05-20T20:29:48.265Z,100646.38
2023-05-20T20:32:16.035Z,100644.25
2023-05-20T20:34:43.590Z,100645.03
2023-05-20T20:37:15.175Z,100662.81
2023-05-20T20:39:48.699Z,100652.25
2023-05-20T20:42:20.022Z,100655.97
2023-05-20T20:44:48.420Z,100649.84
2023-05-20T20:47:15.955Z,100653.34
2023-05-20T20:49:43.873Z,100660.63
2023-05-20T20:52:12.403Z,100659.66
2023-05-20T20:54:42.714Z,100655.97
2023-05-20T20:57:11.667Z,100660.31
2023-05-20T20:59:47.600Z,100655.97
2023-05-20T21:02:15.539Z,100657.44
2023-05-20T21:04:43.871Z,100649.53
2023-05-20T21:07:12.071Z,100642.56
2023-05-20T21:09:43.202Z,100639.88
2023-05-20T21:12:10.956Z,100656.28
2023-05-20T21:14:38.489Z,100631.75
2023-05-20T21:17:06.091Z,100636.28
2023-05-20T21:19:34.727Z,100625.84
2023-05-20T21:22:02.517Z,100620.63
2023-05-20T21:24:30.586Z,100621.41
2023-05-20T21:26:57.984Z,100622.38
2023-05-20T21:29:28.128Z,100624.09
2023-05-20T21:31:55.720Z,100625.44
2023-05-20T21:34:23.193Z,100617.59
2023-05-20T21:36:53.436Z,100623.75
2023-05-20T21:39:21.005Z,100616.03
2023-05-20T21:41:48.491Z,100613.44
2023-05-20T21:44:16.423Z,100608.44
2023-05-20T21:46:44.353Z,100612.00
2023-05-20T21:49:11.954Z,100597.69
2023-05-20T21:51:39.572Z,100598.94
2023-05-20T21:54:10.228Z,100620.44
2023-05-20T21:56:39.040Z,100609.53
2023-05-20T21:59:06.624Z,100607.66
2023-05-20T22:01:34.228Z,100589.16
2023-05-20T22:04:03.358Z,100592.13
2023-05-20T22:06:31.014Z,100606.00
2023-05-20T22:09:01.456Z,100594.72
2023-05-20T22:11:29.052Z,100600.78
2023-05-20T22:13:57.278Z,100592.13
2023-05-20T22:16:25.025Z,100593.91
2023-05-20T22:18:53.818Z,100579.44
2023-05-20T22:21:21.687Z,100570.66
2023-05-20T22:23:49.223Z,100577.78
2023-05-20T22:26:19.777Z,100577.47
2023-05-20T22:28:47.161Z,100574.53
2023-05-20T22:31:14.642Z,100574.59
2023-05-20T22:33:42.374Z,100571.59
2023-05-20T22:36:09.829Z,100569.94
2023-05-20T22:38:37.731Z,100562.03
2023-05-20T22:41:05.589Z,100567.56
2023-05-20T22:43:32.989Z,100567.84
2023-05-20T22:46:00.343Z,100569.41
2023-05-20T22:48:27.675Z,100560.56
2023-05-20T22:50:56.089Z,100553.34
2023-05-20T22:53:23.437Z,100552.41
2023-05-20T22:55:50.811Z,100552.41
2023-05-20T22:58:18.448Z,100548.16
2023-05-20T23:00:46.012Z,100543.47
2023-05-20T23:03:13.545Z,100538.97
2023-05-20T23:05:40.910Z,100541.25
2023-05-20T23:08:08.246Z,100540.59
2023-05-20T23:10:35.838Z,100535.41
2023-05-20T23:13:03.277Z,100530.03
2023-05-20T23:15:30.744Z,100530.03
2023-05-20T23:17:58.592Z,100531.22
2023-05-20T23:20:29.235Z,100523.78
2023-05-20T23:22:56.605Z,100521.00
2023-05-20T23:25:26.868Z,100521.88
2023-05-20T23:27:55.006Z,100519.28
2023-05-20T23:30:22.902Z,100516.50
2023-05-20T23:32:51.342Z,100513.91
2023-05-20T23:35:19.907Z,100506.34
2023-05-20T23:37:47.428Z,100505.91
2023-05-20T23:40:15.196Z,100503.16
2023-05-20T23:42:42.655Z,100506.78
2023-05-20T23:45:10.884Z,100504.28
2023-05-20T23:47:38.291Z,100507.47
2023-05-20T23:50:06.036Z,100498.91
2023-05-20T23:52:33.386Z,100503.31
2023-05-20T23:55:00.953Z,100499.59
2023-05-20T23:57:28.310Z,100496.53
2023-05-20T23:59:55.661Z,100503.41
